Time;durP1;ratioP1;P1;durP2;ratioP2;P2;SDS_P1;SDS_P2;PMS_P1;PMS_P2;Temp;Humidity;BMP_temperature;BMP_pressure;BME280_temperature;BME280_humidity;BME280_pressure;Samples;Min_cycle;Max_cycle;Signal;HPM_P1;HPM_P2
2022/04/16 00:00:28;;;;;;;;;;;8.80;85.20;;;;;;2092722;28;20386;-92
2022/04/16 00:01:49;;;;;;;;;;;8.80;85.30;;;;;;2091426;28;19913;-92
2022/04/16 00:03:10;;;;;;;;;;;8.80;85.40;;;;;;2098375;28;19916;-92
2022/04/16 00:04:30;;;;;;;;;;;8.80;85.40;;;;;;2091702;28;19917;-92
2022/04/16 00:05:53;;;;;;;;;;;8.70;85.40;;;;;;2098806;28;19916;-91
2022/04/16 00:07:13;;;;;;;;;;;8.70;85.40;;;;;;2096334;28;19948;-92
2022/04/16 00:08:32;;;;;;;;;;;8.70;85.40;;;;;;2080290;28;19933;-92
2022/04/16 00:09:52;;;;;;;;;;;8.70;85.60;;;;;;2089522;28;20022;-92
2022/04/16 00:11:11;;;;;;;;;;;8.70;85.60;;;;;;2094660;28;20003;-90
2022/04/16 00:12:30;;;;;;;;;;;8.70;85.60;;;;;;2093609;28;19913;-91
2022/04/16 00:13:50;;;;;;;;;;;8.60;85.60;;;;;;2099584;28;19916;-91
2022/04/16 00:15:09;;;;;;;;;;;8.60;85.60;;;;;;2095110;28;19921;-91
2022/04/16 00:16:28;;;;;;;;;;;8.60;85.60;;;;;;2096040;28;20278;-91
2022/04/16 00:17:48;;;;;;;;;;;8.60;85.70;;;;;;2093247;28;19925;-92
2022/04/16 00:19:09;;;;;;;;;;;8.60;86.30;;;;;;2081431;28;19917;-91
2022/04/16 00:20:28;;;;;;;;;;;8.50;85.70;;;;;;2085007;28;19925;-92
2022/04/16 00:21:47;;;;;;;;;;;8.50;85.70;;;;;;2093937;28;19908;-91
2022/04/16 00:23:07;;;;;;;;;;;8.50;85.70;;;;;;2091526;28;19917;-92
2022/04/16 00:24:27;;;;;;;;;;;8.50;85.70;;;;;;2092422;28;19916;-92
2022/04/16 00:25:50;;;;;;;;;;;8.50;85.70;;;;;;2094700;28;20389;-92
2022/04/16 00:27:10;;;;;;;;;;;8.50;85.80;;;;;;2099081;28;19917;-92
2022/04/16 00:28:29;;;;;;;;;;;8.50;85.80;;;;;;2091115;28;19988;-91
2022/04/16 00:29:49;;;;;;;;;;;8.50;85.80;;;;;;2093690;28;19913;-92
2022/04/16 00:31:08;;;;;;;;;;;8.50;85.90;;;;;;2086583;28;19920;-91
2022/04/16 00:32:28;;;;;;;;;;;8.40;85.80;;;;;;2083076;28;19913;-92
2022/04/16 00:33:47;;;;;;;;;;;8.40;85.80;;;;;;2082628;28;19928;-92
2022/04/16 00:35:07;;;;;;;;;;;8.40;85.80;;;;;;2081509;28;19925;-92
2022/04/16 00:36:27;;;;;;;;;;;8.40;85.90;;;;;;2100332;28;19916;-91
2022/04/16 00:37:46;;;;;;;;;;;8.40;85.90;;;;;;2089065;28;19917;-92
2022/04/16 00:39:05;;;;;;;;;;;8.40;85.90;;;;;;2089533;28;19913;-91
2022/04/16 00:40:24;;;;;;;;;;;8.40;85.90;;;;;;2080516;28;19917;-91
2022/04/16 00:41:44;;;;;;;;;;;8.40;85.90;;;;;;2093164;28;19920;-91
2022/04/16 00:43:05;;;;;;;;;;;8.30;85.90;;;;;;2092815;28;19963;-92
2022/04/16 00:44:25;;;;;;;;;;;8.30;86.00;;;;;;2087187;28;19924;-90
2022/04/16 00:45:44;;;;;;;;;;;8.30;86.00;;;;;;2095830;28;19967;-92
2022/04/16 00:47:04;;;;;;;;;;;8.30;86.00;;;;;;2079701;28;19921;-92
2022/04/16 00:48:24;;;;;;;;;;;8.30;86.10;;;;;;2088295;28;20390;-92
2022/04/16 00:49:44;;;;;;;;;;;8.30;86.10;;;;;;2094313;28;19916;-91
2022/04/16 00:51:03;;;;;;;;;;;8.30;86.20;;;;;;2091887;28;20375;-92
2022/04/16 00:52:22;;;;;;;;;;;8.30;86.20;;;;;;2091876;28;20313;-92
2022/04/16 00:53:41;;;;;;;;;;;8.30;86.20;;;;;;2091201;28;19995;-92
2022/04/16 00:55:01;;;;;;;;;;;8.20;86.10;;;;;;2094588;28;19917;-91
2022/04/16 00:56:20;;;;;;;;;;;8.20;86.20;;;;;;2096894;28;19960;-91
2022/04/16 00:57:40;;;;;;;;;;;8.20;86.20;;;;;;2090663;28;19925;-91
2022/04/16 00:59:01;;;;;;;;;;;8.20;86.20;;;;;;2093407;28;19918;-92
2022/04/16 01:00:20;;;;;;;;;;;8.20;86.20;;;;;;2092591;28;19920;-91
2022/04/16 01:01:39;;;;;;;;;;;8.20;86.30;;;;;;2085194;28;19997;-91
2022/04/16 01:02:58;;;;;;;;;;;8.20;86.30;;;;;;2090894;28;19920;-91
2022/04/16 01:04:18;;;;;;;;;;;8.10;86.30;;;;;;2090342;28;20690;-90
2022/04/16 01:05:37;;;;;;;;;;;8.20;86.30;;;;;;2082743;28;19925;-92
2022/04/16 01:06:56;;;;;;;;;;;8.10;86.30;;;;;;2083912;28;20271;-91
2022/04/16 01:08:17;;;;;;;;;;;8.10;86.30;;;;;;2089073;28;20480;-91
2022/04/16 01:09:36;;;;;;;;;;;8.10;86.30;;;;;;2091191;28;19917;-91
2022/04/16 01:10:55;;;;;;;;;;;8.10;86.40;;;;;;2086836;28;19921;-91
2022/04/16 01:12:14;;;;;;;;;;;8.10;86.40;;;;;;2088856;28;19964;-91
2022/04/16 01:13:36;;;;;;;;;;;8.10;86.40;;;;;;2092767;28;19924;-91
2022/04/16 01:14:57;;;;;;;;;;;8.10;86.40;;;;;;2092713;28;20019;-91
2022/04/16 01:16:16;;;;;;;;;;;8.10;86.40;;;;;;2086698;28;20359;-92
2022/04/16 01:17:36;;;;;;;;;;;8.00;86.40;;;;;;2090343;28;19920;-91
2022/04/16 01:18:55;;;;;;;;;;;8.00;86.40;;;;;;2093462;28;19912;-91
2022/04/16 01:20:16;;;;;;;;;;;8.00;86.40;;;;;;2090387;28;20322;-91
2022/04/16 01:21:36;;;;;;;;;;;8.00;86.40;;;;;;2088287;28;19966;-91
2022/04/16 01:22:56;;;;;;;;;;;8.00;86.50;;;;;;2083248;28;19917;-92
2022/04/16 01:24:15;;;;;;;;;;;8.00;86.50;;;;;;2081966;28;20321;-91
2022/04/16 01:25:35;;;;;;;;;;;8.00;86.60;;;;;;2079540;28;19917;-91
2022/04/16 01:26:55;;;;;;;;;;;8.00;86.70;;;;;;2090378;28;19921;-91
2022/04/16 01:28:14;;;;;;;;;;;7.90;86.80;;;;;;2085921;28;20365;-92
2022/04/16 01:29:33;;;;;;;;;;;7.90;86.80;;;;;;2090213;28;19921;-91
2022/04/16 01:30:52;;;;;;;;;;;7.90;87.00;;;;;;2093181;28;19917;-91
2022/04/16 01:32:11;;;;;;;;;;;7.90;87.00;;;;;;2094680;28;19920;-92
2022/04/16 01:33:30;;;;;;;;;;;7.90;87.00;;;;;;2095806;28;19908;-91
2022/04/16 01:34:50;;;;;;;;;;;7.80;86.90;;;;;;2078347;28;20399;-91
2022/04/16 01:36:09;;;;;;;;;;;7.80;86.90;;;;;;2079231;28;19918;-91
2022/04/16 01:37:34;;;;;;;;;;;7.80;87.00;;;;;;2082707;28;20318;-91
2022/04/16 01:38:53;;;;;;;;;;;7.80;87.10;;;;;;2088885;28;19921;-91
2022/04/16 01:40:14;;;;;;;;;;;7.80;87.10;;;;;;2085543;28;19921;-90
2022/04/16 01:41:35;;;;;;;;;;;7.70;87.10;;;;;;2089886;28;19925;-91
2022/04/16 01:42:57;;;;;;;;;;;7.70;87.10;;;;;;2084869;28;19956;-87
2022/04/16 01:44:16;;;;;;;;;;;7.70;87.20;;;;;;2081619;28;19956;-89
2022/04/16 01:45:35;;;;;;;;;;;7.70;87.20;;;;;;2082452;28;19929;-91
2022/04/16 01:46:55;;;;;;;;;;;7.70;87.40;;;;;;2085665;28;20298;-91
2022/04/16 01:48:14;;;;;;;;;;;7.70;87.40;;;;;;2089493;28;19913;-80
2022/04/16 01:49:34;;;;;;;;;;;7.60;87.40;;;;;;2079882;28;19956;-90
2022/04/16 01:50:54;;;;;;;;;;;7.60;87.40;;;;;;2080987;28;19920;-91
2022/04/16 01:52:13;;;;;;;;;;;7.60;87.40;;;;;;2080211;28;20000;-91
2022/04/16 01:53:33;;;;;;;;;;;7.60;87.40;;;;;;2082720;28;19921;-91
2022/04/16 01:54:52;;;;;;;;;;;7.60;87.40;;;;;;2082727;28;19933;-91
2022/04/16 01:56:11;;;;;;;;;;;7.60;87.40;;;;;;2090686;28;19945;-89
2022/04/16 01:57:30;;;;;;;;;;;7.60;87.40;;;;;;2084440;28;19905;-90
2022/04/16 01:58:50;;;;;;;;;;;7.60;87.50;;;;;;2079249;28;19913;-91
2022/04/16 02:00:11;;;;;;;;;;;7.60;87.50;;;;;;2079010;28;19917;-91
2022/04/16 02:01:32;;;;;;;;;;;7.50;87.40;;;;;;2083171;28;19917;-91
2022/04/16 02:02:51;;;;;;;;;;;7.50;87.40;;;;;;2075313;28;19962;-91
2022/04/16 02:04:10;;;;;;;;;;;7.60;87.50;;;;;;2073815;28;20303;-91
2022/04/16 02:05:30;;;;;;;;;;;7.50;87.40;;;;;;2074633;28;19925;-89
2022/04/16 02:06:50;;;;;;;;;;;7.60;87.50;;;;;;2068902;28;20001;-90
2022/04/16 02:08:09;;;;;;;;;;;7.50;87.40;;;;;;2078141;28;19921;-90
2022/04/16 02:09:29;;;;;;;;;;;7.50;87.40;;;;;;2074776;28;19917;-91
2022/04/16 02:10:48;;;;;;;;;;;7.50;87.40;;;;;;2082352;28;19916;-91
2022/04/16 02:12:08;;;;;;;;;;;7.50;87.40;;;;;;2079007;28;20004;-91
2022/04/16 02:13:27;;;;;;;;;;;7.50;87.40;;;;;;2080631;28;19975;-90
2022/04/16 02:14:46;;;;;;;;;;;7.50;87.40;;;;;;2086545;28;19916;-91
2022/04/16 02:16:05;;;;;;;;;;;7.50;87.40;;;;;;2076881;28;19918;-91
2022/04/16 02:17:25;;;;;;;;;;;7.50;87.40;;;;;;2071972;28;20333;-91
2022/04/16 02:18:44;;;;;;;;;;;7.50;87.50;;;;;;2072471;28;19921;-90
2022/04/16 02:20:06;;;;;;;;;;;7.50;87.50;;;;;;2080189;28;20374;-91
2022/04/16 02:21:25;;;;;;;;;;;7.50;87.40;;;;;;2083900;28;19917;-91
2022/04/16 02:22:46;;;;;;;;;;;7.50;87.40;;;;;;2083278;28;19912;-90
2022/04/16 02:24:06;;;;;;;;;;;7.50;87.40;;;;;;2080126;28;20383;-91
2022/04/16 02:25:25;;;;;;;;;;;7.50;87.40;;;;;;2074530;28;19960;-91
2022/04/16 02:26:45;;;;;;;;;;;7.50;87.40;;;;;;2076863;28;20360;-91
2022/04/16 02:28:04;;;;;;;;;;;7.50;87.50;;;;;;2085920;28;19921;-90
2022/04/16 02:29:23;;;;;;;;;;;7.50;87.80;;;;;;2086681;28;20562;-90
2022/04/16 02:30:42;;;;;;;;;;;7.50;87.50;;;;;;2079126;28;19917;-91
2022/04/16 02:32:03;;;;;;;;;;;7.40;87.40;;;;;;2070975;28;20363;-90
2022/04/16 02:33:22;;;;;;;;;;;7.40;87.50;;;;;;2080921;28;19959;-91
2022/04/16 02:34:41;;;;;;;;;;;7.40;87.50;;;;;;2091114;28;20027;-90
2022/04/16 02:36:01;;;;;;;;;;;7.40;87.50;;;;;;2091298;28;19925;-91
2022/04/16 02:37:20;;;;;;;;;;;7.40;87.60;;;;;;2090902;28;19916;-90
2022/04/16 02:38:42;;;;;;;;;;;7.40;87.50;;;;;;2082899;28;19925;-90
2022/04/16 02:40:02;;;;;;;;;;;7.40;87.70;;;;;;2082356;28;19917;-91
2022/04/16 02:41:22;;;;;;;;;;;7.40;87.60;;;;;;2092417;28;19916;-91
2022/04/16 02:42:42;;;;;;;;;;;7.40;87.60;;;;;;2094910;28;20024;-91
2022/04/16 02:44:02;;;;;;;;;;;7.30;87.60;;;;;;2092804;28;20022;-90
2022/04/16 02:47:05;;;;;;;;;;;7.30;87.60;;;;;;2091496;28;20400;-90
2022/04/16 02:48:25;;;;;;;;;;;7.30;87.60;;;;;;2094464;28;19924;-90
2022/04/16 02:49:44;;;;;;;;;;;7.30;87.60;;;;;;2088923;28;19939;-91
2022/04/16 02:51:03;;;;;;;;;;;7.30;87.70;;;;;;2086180;28;19920;-91
2022/04/16 02:52:23;;;;;;;;;;;7.30;87.70;;;;;;2094102;28;20363;-91
2022/04/16 02:53:42;;;;;;;;;;;7.30;87.80;;;;;;2091577;28;20375;-90
2022/04/16 02:55:02;;;;;;;;;;;7.30;87.80;;;;;;2083978;28;22089;-90
2022/04/16 02:56:21;;;;;;;;;;;7.20;87.80;;;;;;2086922;28;19912;-91
2022/04/16 02:57:40;;;;;;;;;;;7.20;87.80;;;;;;2091835;28;19916;-91
2022/04/16 02:58:59;;;;;;;;;;;7.20;87.80;;;;;;2087171;28;19917;-91
2022/04/16 03:00:22;;;;;;;;;;;7.20;87.80;;;;;;2083500;28;19917;-90
2022/04/16 03:01:41;;;;;;;;;;;7.20;87.90;;;;;;2082038;28;19917;-90
2022/04/16 03:03:01;;;;;;;;;;;7.20;88.00;;;;;;2081284;28;19932;-90
2022/04/16 03:04:21;;;;;;;;;;;7.20;88.00;;;;;;2081293;28;19920;-89
2022/04/16 03:05:41;;;;;;;;;;;7.20;88.20;;;;;;2091388;28;19917;-90
2022/04/16 03:07:01;;;;;;;;;;;7.20;88.00;;;;;;2095621;28;19916;-90
2022/04/16 03:08:20;;;;;;;;;;;7.20;88.00;;;;;;2095853;28;19968;-90
2022/04/16 03:09:39;;;;;;;;;;;7.20;88.00;;;;;;2096817;28;19951;-90
2022/04/16 03:10:59;;;;;;;;;;;7.20;88.00;;;;;;2093262;28;19924;-90
2022/04/16 03:12:18;;;;;;;;;;;7.20;88.00;;;;;;2098142;28;19913;-91
2022/04/16 03:13:38;;;;;;;;;;;7.20;88.00;;;;;;2092914;28;19912;-90
2022/04/16 03:18:13;;;;;;;;;;;7.20;88.00;;;;;;2095203;28;20359;-90
2022/04/16 03:19:32;;;;;;;;;;;7.20;88.00;;;;;;2098809;28;19916;-91
2022/04/16 03:20:51;;;;;;;;;;;7.20;88.10;;;;;;2093886;28;19917;-90
2022/04/16 03:22:11;;;;;;;;;;;7.10;88.00;;;;;;2093429;28;20011;-90
2022/04/16 03:23:30;;;;;;;;;;;7.20;88.10;;;;;;2090583;28;19921;-90
2022/04/16 03:24:51;;;;;;;;;;;7.20;88.10;;;;;;2086656;28;19956;-90
2022/04/16 03:26:10;;;;;;;;;;;7.10;88.10;;;;;;2086786;28;20007;-91
2022/04/16 03:27:30;;;;;;;;;;;7.20;88.10;;;;;;2084967;28;19913;-90
2022/04/16 03:28:50;;;;;;;;;;;7.10;88.20;;;;;;2085465;28;19921;-90
2022/04/16 03:30:09;;;;;;;;;;;7.20;88.20;;;;;;2080870;28;19996;-91
2022/04/16 03:31:28;;;;;;;;;;;7.20;88.20;;;;;;2094979;28;19913;-90
2022/04/16 03:32:47;;;;;;;;;;;7.10;88.10;;;;;;2099602;28;19917;-89
2022/04/16 03:34:09;;;;;;;;;;;7.10;88.20;;;;;;2102910;28;20206;-89
2022/04/16 03:35:28;;;;;;;;;;;7.10;88.80;;;;;;2092799;28;19925;-91
2022/04/16 03:36:47;;;;;;;;;;;7.10;88.20;;;;;;2084419;28;19917;-90
2022/04/16 03:38:06;;;;;;;;;;;7.10;88.20;;;;;;2102097;28;19932;-91
2022/04/16 03:39:26;;;;;;;;;;;7.10;88.20;;;;;;2091622;28;19917;-90
2022/04/16 03:40:48;;;;;;;;;;;7.10;88.60;;;;;;2093871;28;20374;-90
2022/04/16 03:42:07;;;;;;;;;;;7.10;88.30;;;;;;2094343;28;20382;-90
2022/04/16 03:43:29;;;;;;;;;;;7.10;88.30;;;;;;2088937;28;19912;-90
2022/04/16 03:44:48;;;;;;;;;;;7.10;88.40;;;;;;2089185;28;19917;-90
2022/04/16 03:46:07;;;;;;;;;;;7.10;88.30;;;;;;2098677;28;19909;-88
2022/04/16 03:47:27;;;;;;;;;;;7.10;88.40;;;;;;2098862;28;19901;-89
2022/04/16 03:48:46;;;;;;;;;;;7.10;88.40;;;;;;2087787;28;19988;-90
2022/04/16 03:50:06;;;;;;;;;;;7.00;88.50;;;;;;2089996;28;20004;-90
2022/04/16 03:51:26;;;;;;;;;;;7.10;88.50;;;;;;2092045;28;19916;-91
2022/04/16 03:52:46;;;;;;;;;;;7.00;88.40;;;;;;2095053;28;19956;-90
2022/04/16 04:00:38;;;;;;;;;;;7.00;88.60;;;;;;2091810;28;19916;-90
2022/04/16 04:01:57;;;;;;;;;;;6.90;88.50;;;;;;2091853;28;19916;-90
2022/04/16 04:03:16;;;;;;;;;;;6.90;88.60;;;;;;2084963;28;19964;-90
2022/04/16 04:04:35;;;;;;;;;;;6.90;88.60;;;;;;2089707;28;19924;-90
2022/04/16 04:05:56;;;;;;;;;;;6.90;88.60;;;;;;2099576;28;19920;-90
2022/04/16 04:07:16;;;;;;;;;;;6.90;88.60;;;;;;2086291;28;19922;-90
2022/04/16 04:08:35;;;;;;;;;;;6.90;88.70;;;;;;2094972;28;19928;-90
2022/04/16 04:09:54;;;;;;;;;;;6.90;88.70;;;;;;2091236;28;19921;-90
2022/04/16 04:11:14;;;;;;;;;;;6.90;88.80;;;;;;2082443;28;19917;-91
2022/04/16 04:12:33;;;;;;;;;;;6.90;88.70;;;;;;2081653;28;19964;-89
2022/04/16 04:13:52;;;;;;;;;;;6.90;88.80;;;;;;2076761;28;19917;-90
2022/04/16 04:15:11;;;;;;;;;;;6.90;88.80;;;;;;2082777;28;19964;-91
2022/04/16 04:16:30;;;;;;;;;;;6.90;88.80;;;;;;2085181;28;19917;-90
2022/04/16 04:17:51;;;;;;;;;;;6.90;88.80;;;;;;2083614;28;19916;-89
2022/04/16 04:19:10;;;;;;;;;;;6.80;88.80;;;;;;2080352;28;19917;-90
2022/04/16 04:20:29;;;;;;;;;;;6.90;88.80;;;;;;2086066;28;19917;-90
2022/04/16 04:21:48;;;;;;;;;;;6.90;88.80;;;;;;2086047;28;19916;-90
2022/04/16 04:23:08;;;;;;;;;;;6.80;88.70;;;;;;2092910;28;20011;-89
2022/04/16 04:24:27;;;;;;;;;;;6.90;88.80;;;;;;2091253;28;19916;-90
2022/04/16 04:25:46;;;;;;;;;;;6.80;88.70;;;;;;2085655;28;19916;-90
2022/04/16 04:27:06;;;;;;;;;;;6.90;88.80;;;;;;2086232;28;21524;-90
2022/04/16 04:28:25;;;;;;;;;;;6.80;88.70;;;;;;2086816;28;19921;-90
2022/04/16 04:29:44;;;;;;;;;;;6.90;88.80;;;;;;2090153;28;19917;-90
2022/04/16 04:31:04;;;;;;;;;;;6.80;88.80;;;;;;2083353;28;19920;-89
2022/04/16 04:32:23;;;;;;;;;;;6.80;88.80;;;;;;2083523;28;20390;-90
2022/04/16 04:33:42;;;;;;;;;;;6.80;88.80;;;;;;2089117;28;19952;-90
2022/04/16 04:35:02;;;;;;;;;;;6.80;88.80;;;;;;2082754;28;19925;-90
2022/04/16 04:36:24;;;;;;;;;;;6.80;88.80;;;;;;2094525;28;19912;-90
2022/04/16 04:37:43;;;;;;;;;;;6.80;88.80;;;;;;2097445;28;20312;-91
2022/04/16 04:39:02;;;;;;;;;;;6.80;88.80;;;;;;2086424;28;19960;-91
2022/04/16 04:40:22;;;;;;;;;;;6.80;88.80;;;;;;2089624;28;19916;-90
2022/04/16 04:41:43;;;;;;;;;;;6.80;88.80;;;;;;2094671;28;19917;-90
2022/04/16 04:43:02;;;;;;;;;;;6.80;88.80;;;;;;2093108;28;19959;-90
2022/04/16 04:44:21;;;;;;;;;;;6.80;88.80;;;;;;2086297;28;19916;-90
2022/04/16 04:45:41;;;;;;;;;;;6.80;88.80;;;;;;2080436;28;19917;-89
2022/04/16 04:47:00;;;;;;;;;;;6.80;88.90;;;;;;2089175;28;19917;-90
2022/04/16 04:48:19;;;;;;;;;;;6.80;88.90;;;;;;2078967;28;20223;-91
2022/04/16 04:49:38;;;;;;;;;;;6.80;88.90;;;;;;2083315;28;19917;-90
2022/04/16 04:50:57;;;;;;;;;;;6.80;88.90;;;;;;2082362;28;19972;-90
2022/04/16 04:52:20;;;;;;;;;;;6.80;88.90;;;;;;2088556;28;19924;-90
2022/04/16 04:53:40;;;;;;;;;;;6.80;89.00;;;;;;2084225;28;19924;-90
2022/04/16 04:55:00;;;;;;;;;;;6.80;88.90;;;;;;2085056;28;20355;-90
2022/04/16 04:56:19;;;;;;;;;;;6.80;89.00;;;;;;2098236;28;19912;-90
2022/04/16 04:57:39;;;;;;;;;;;6.80;89.00;;;;;;2094003;28;19912;-90
2022/04/16 04:58:58;;;;;;;;;;;6.80;89.00;;;;;;2089236;28;20015;-90
2022/04/16 05:00:18;;;;;;;;;;;6.80;89.00;;;;;;2082478;28;19956;-91
2022/04/16 05:01:37;;;;;;;;;;;6.80;89.00;;;;;;2093332;28;19917;-89
2022/04/16 05:02:56;;;;;;;;;;;6.80;89.20;;;;;;2092679;28;19916;-90
2022/04/16 05:04:15;;;;;;;;;;;6.80;89.10;;;;;;2094385;28;19920;-90
2022/04/16 05:05:34;;;;;;;;;;;6.80;89.20;;;;;;2090154;28;20409;-90
2022/04/16 05:06:53;;;;;;;;;;;6.80;89.10;;;;;;2082336;28;19917;-90
2022/04/16 05:08:12;;;;;;;;;;;6.80;89.10;;;;;;2084056;28;20394;-90
2022/04/16 05:09:32;;;;;;;;;;;6.80;89.10;;;;;;2088671;28;19967;-90
2022/04/16 05:10:51;;;;;;;;;;;6.80;89.00;;;;;;2087811;28;19920;-89
2022/04/16 05:12:10;;;;;;;;;;;6.80;89.00;;;;;;2084397;28;19963;-90
2022/04/16 05:13:30;;;;;;;;;;;6.90;89.10;;;;;;2086158;28;20298;-90
2022/04/16 05:14:49;;;;;;;;;;;6.90;89.10;;;;;;2086603;28;20378;-90
2022/04/16 05:16:08;;;;;;;;;;;6.90;89.10;;;;;;2088329;28;20004;-90
2022/04/16 05:17:27;;;;;;;;;;;6.80;89.10;;;;;;2093593;28;19921;-90
2022/04/16 05:18:47;;;;;;;;;;;6.90;89.20;;;;;;2085209;28;19916;-90
2022/04/16 05:20:07;;;;;;;;;;;6.90;89.20;;;;;;2079330;28;19956;-90
2022/04/16 05:21:26;;;;;;;;;;;6.90;89.10;;;;;;2083525;28;19917;-90
2022/04/16 05:22:45;;;;;;;;;;;6.90;89.10;;;;;;2086610;28;19913;-89
2022/04/16 05:24:06;;;;;;;;;;;6.90;89.10;;;;;;2100374;28;19921;-90
2022/04/16 05:25:25;;;;;;;;;;;6.90;89.10;;;;;;2100601;28;19925;-89
2022/04/16 05:26:45;;;;;;;;;;;6.90;89.10;;;;;;2093704;28;19912;-89
2022/04/16 05:28:04;;;;;;;;;;;7.00;89.30;;;;;;2097574;28;19909;-89
2022/04/16 05:29:24;;;;;;;;;;;7.00;89.20;;;;;;2095918;28;19917;-92
2022/04/16 05:30:48;;;;;;;;;;;7.00;89.20;;;;;;2089248;28;19916;-90
2022/04/16 05:32:10;;;;;;;;;;;7.00;89.20;;;;;;2087900;28;19940;-89
2022/04/16 05:35:09;;;;;;;;;;;7.00;89.30;;;;;;2090364;28;19924;-90
2022/04/16 05:36:28;;;;;;;;;;;7.00;89.20;;;;;;2094086;28;19916;-90
2022/04/16 05:37:47;;;;;;;;;;;7.10;89.20;;;;;;2104186;28;19921;-90
2022/04/16 05:39:06;;;;;;;;;;;7.10;89.20;;;;;;2102289;28;19913;-90
2022/04/16 05:40:26;;;;;;;;;;;7.10;89.20;;;;;;2084614;28;20000;-89
2022/04/16 05:41:45;;;;;;;;;;;7.20;89.20;;;;;;2083214;28;19917;-90
2022/04/16 05:43:05;;;;;;;;;;;7.20;89.10;;;;;;2093260;28;19917;-90
2022/04/16 05:44:24;;;;;;;;;;;7.20;89.00;;;;;;2085022;28;19921;-91
2022/04/16 05:45:44;;;;;;;;;;;7.30;89.10;;;;;;2084897;28;19916;-90
2022/04/16 05:47:03;;;;;;;;;;;7.30;89.00;;;;;;2091459;28;19920;-91
2022/04/16 05:48:23;;;;;;;;;;;7.30;89.00;;;;;;2091444;28;19928;-90
2022/04/16 05:49:42;;;;;;;;;;;7.40;89.00;;;;;;2083636;28;19920;-90
2022/04/16 05:51:01;;;;;;;;;;;7.40;89.00;;;;;;2086968;28;19955;-89
2022/04/16 05:52:22;;;;;;;;;;;7.50;88.90;;;;;;2091755;28;20386;-90
2022/04/16 05:53:41;;;;;;;;;;;7.50;89.00;;;;;;2103421;28;19920;-90
2022/04/16 05:55:01;;;;;;;;;;;7.50;88.90;;;;;;2097261;28;19924;-90
2022/04/16 05:56:21;;;;;;;;;;;7.60;89.00;;;;;;2096957;28;20003;-91
2022/04/16 05:57:40;;;;;;;;;;;7.60;89.00;;;;;;2095638;28;19917;-95
2022/04/16 05:59:00;;;;;;;;;;;7.60;88.90;;;;;;2096223;28;19912;-90
2022/04/16 06:00:20;;;;;;;;;;;7.70;88.90;;;;;;2096018;28;19917;-92
2022/04/16 06:01:39;;;;;;;;;;;7.70;88.90;;;;;;2089855;28;19956;-90
2022/04/16 06:02:59;;;;;;;;;;;7.80;88.70;;;;;;2094524;28;20243;-91
2022/04/16 06:04:18;;;;;;;;;;;7.80;88.70;;;;;;2093312;28;19959;-92
2022/04/16 06:05:37;;;;;;;;;;;7.80;88.80;;;;;;2086511;28;20402;-92
2022/04/16 06:06:56;;;;;;;;;;;7.90;88.70;;;;;;2079060;28;19925;-90
2022/04/16 06:08:15;;;;;;;;;;;7.90;88.70;;;;;;2091833;28;19924;-91
2022/04/16 06:09:34;;;;;;;;;;;7.90;88.60;;;;;;2092624;28;20007;-89
2022/04/16 06:10:54;;;;;;;;;;;8.00;88.60;;;;;;2094332;28;20291;-91
2022/04/16 06:12:13;;;;;;;;;;;8.00;88.50;;;;;;2092779;28;19952;-90
2022/04/16 06:13:32;;;;;;;;;;;8.00;88.60;;;;;;2087685;28;20387;-90
2022/04/16 06:14:52;;;;;;;;;;;8.00;88.40;;;;;;2090036;28;19916;-91
2022/04/16 06:16:11;;;;;;;;;;;8.10;88.50;;;;;;2084645;28;19921;-91
2022/04/16 06:17:30;;;;;;;;;;;8.10;88.50;;;;;;2084562;28;19917;-90
2022/04/16 06:18:50;;;;;;;;;;;8.10;88.50;;;;;;2085080;28;19917;-91
2022/04/16 06:20:09;;;;;;;;;;;8.20;88.60;;;;;;2083907;28;19921;-88
2022/04/16 06:21:29;;;;;;;;;;;8.20;88.50;;;;;;2091847;28;20278;-91
2022/04/16 06:22:48;;;;;;;;;;;8.20;88.40;;;;;;2089671;28;19917;-90
2022/04/16 06:24:07;;;;;;;;;;;8.20;88.50;;;;;;2092519;28;19916;-90
2022/04/16 06:25:26;;;;;;;;;;;8.30;88.50;;;;;;2093943;28;19917;-91
2022/04/16 06:26:47;;;;;;;;;;;8.30;88.40;;;;;;2081214;28;19918;-91
2022/04/16 06:28:06;;;;;;;;;;;8.40;88.40;;;;;;2087192;28;19908;-90
2022/04/16 06:29:25;;;;;;;;;;;8.40;88.50;;;;;;2089988;28;19913;-91
2022/04/16 06:30:44;;;;;;;;;;;8.40;88.40;;;;;;2083082;28;19921;-91
2022/04/16 06:32:04;;;;;;;;;;;8.50;88.40;;;;;;2082835;28;19925;-89
2022/04/16 06:33:23;;;;;;;;;;;8.50;88.40;;;;;;2080018;28;20203;-90
2022/04/16 06:34:43;;;;;;;;;;;8.50;88.60;;;;;;2085503;28;19976;-90
2022/04/16 06:36:02;;;;;;;;;;;8.50;88.50;;;;;;2091589;28;19916;-89
2022/04/16 06:37:21;;;;;;;;;;;8.50;88.60;;;;;;2090071;28;19917;-89
2022/04/16 06:38:42;;;;;;;;;;;8.60;88.60;;;;;;2093911;28;19916;-89
2022/04/16 06:40:01;;;;;;;;;;;8.60;88.60;;;;;;2082850;28;19921;-89
2022/04/16 06:41:20;;;;;;;;;;;8.60;88.50;;;;;;2091123;28;19913;-90
2022/04/16 06:42:39;;;;;;;;;;;8.60;88.50;;;;;;2087834;28;20375;-89
2022/04/16 06:43:58;;;;;;;;;;;8.70;88.60;;;;;;2089093;28;20007;-89
2022/04/16 06:45:18;;;;;;;;;;;8.70;88.60;;;;;;2082903;28;19917;-89
2022/04/16 06:46:37;;;;;;;;;;;8.70;88.50;;;;;;2089739;28;20356;-89
2022/04/16 06:47:56;;;;;;;;;;;8.80;88.60;;;;;;2085431;28;19917;-89
2022/04/16 06:49:15;;;;;;;;;;;8.80;88.40;;;;;;2086245;28;19925;-89
2022/04/16 06:50:34;;;;;;;;;;;8.90;88.50;;;;;;2092195;28;19921;-90
2022/04/16 06:51:53;;;;;;;;;;;8.90;88.30;;;;;;2081943;28;19921;-89
2022/04/16 06:53:13;;;;;;;;;;;8.90;88.30;;;;;;2088279;28;19916;-88
2022/04/16 06:54:32;;;;;;;;;;;9.00;88.30;;;;;;2095085;28;19939;-89
2022/04/16 06:55:52;;;;;;;;;;;9.00;88.30;;;;;;2091935;28;19917;-88
2022/04/16 06:57:11;;;;;;;;;;;9.10;88.20;;;;;;2083259;28;20458;-89
2022/04/16 06:58:30;;;;;;;;;;;9.10;88.10;;;;;;2091255;28;20390;-91
2022/04/16 06:59:49;;;;;;;;;;;9.10;88.00;;;;;;2092858;28;19916;-90
2022/04/16 07:01:08;;;;;;;;;;;9.20;88.10;;;;;;2088053;28;19917;-90
2022/04/16 07:02:27;;;;;;;;;;;9.20;88.00;;;;;;2083567;28;20363;-90
2022/04/16 07:03:47;;;;;;;;;;;9.30;88.00;;;;;;2088849;28;19925;-89
2022/04/16 07:05:07;;;;;;;;;;;9.30;88.10;;;;;;2085304;28;19925;-90
2022/04/16 07:06:26;;;;;;;;;;;9.30;88.00;;;;;;2090274;28;19924;-92
2022/04/16 07:07:45;;;;;;;;;;;9.30;87.90;;;;;;2092525;28;19913;-89
2022/04/16 07:09:04;;;;;;;;;;;9.40;88.30;;;;;;2092939;28;19929;-93
2022/04/16 07:10:23;;;;;;;;;;;9.40;88.10;;;;;;2085851;28;19921;-90
2022/04/16 07:11:43;;;;;;;;;;;9.40;88.20;;;;;;2078113;28;20385;-90
2022/04/16 07:13:02;;;;;;;;;;;9.40;88.20;;;;;;2080852;28;19913;-91
2022/04/16 07:14:21;;;;;;;;;;;9.40;88.30;;;;;;2095468;28;19917;-89
2022/04/16 07:15:40;;;;;;;;;;;9.40;88.30;;;;;;2097411;28;19980;-90
2022/04/16 07:17:01;;;;;;;;;;;9.40;88.40;;;;;;2093262;28;19924;-89
2022/04/16 07:18:20;;;;;;;;;;;9.40;88.30;;;;;;2089758;28;20343;-91
2022/04/16 07:19:39;;;;;;;;;;;9.40;88.30;;;;;;2095792;28;19913;-92
2022/04/16 07:20:59;;;;;;;;;;;9.40;88.40;;;;;;2101419;28;19916;-90
2022/04/16 07:22:19;;;;;;;;;;;9.40;88.30;;;;;;2101096;28;19912;-89
2022/04/16 07:23:39;;;;;;;;;;;9.50;88.40;;;;;;2098323;28;20323;-90
2022/04/16 07:24:58;;;;;;;;;;;9.40;88.50;;;;;;2093577;28;19916;-89
2022/04/16 07:26:18;;;;;;;;;;;9.50;88.30;;;;;;2083838;28;19999;-90
2022/04/16 07:27:38;;;;;;;;;;;9.50;88.30;;;;;;2093319;28;20424;-89
2022/04/16 07:28:57;;;;;;;;;;;9.50;88.30;;;;;;2091121;28;19992;-87
2022/04/16 07:30:16;;;;;;;;;;;9.60;88.20;;;;;;2093334;28;20378;-89
2022/04/16 07:31:35;;;;;;;;;;;9.50;88.20;;;;;;2080941;28;19921;-89
2022/04/16 07:32:54;;;;;;;;;;;9.60;88.30;;;;;;2083322;28;19916;-89
2022/04/16 07:34:14;;;;;;;;;;;9.60;88.20;;;;;;2082239;28;19921;-89
2022/04/16 07:35:33;;;;;;;;;;;9.60;88.10;;;;;;2093790;28;19980;-88
2022/04/16 07:36:52;;;;;;;;;;;9.70;88.10;;;;;;2084016;28;19920;-89
2022/04/16 07:38:11;;;;;;;;;;;9.80;88.10;;;;;;2093795;28;19916;-91
2022/04/16 07:39:31;;;;;;;;;;;9.80;88.00;;;;;;2096008;28;19916;-90
2022/04/16 07:40:50;;;;;;;;;;;9.80;87.90;;;;;;2095297;28;19956;-91
2022/04/16 07:42:09;;;;;;;;;;;9.80;87.80;;;;;;2092107;28;19913;-91
2022/04/16 07:43:29;;;;;;;;;;;9.90;87.80;;;;;;2085232;28;19925;-90
2022/04/16 07:44:48;;;;;;;;;;;9.90;87.70;;;;;;2093716;28;19916;-91
2022/04/16 07:46:08;;;;;;;;;;;10.00;87.70;;;;;;2095371;28;19960;-91
2022/04/16 07:47:27;;;;;;;;;;;10.00;87.70;;;;;;2093823;28;19921;-91
2022/04/16 07:48:46;;;;;;;;;;;10.00;87.60;;;;;;2085007;28;20115;-91
2022/04/16 07:50:06;;;;;;;;;;;10.10;87.60;;;;;;2083700;28;19917;-91
2022/04/16 07:51:25;;;;;;;;;;;10.10;87.50;;;;;;2090748;28;19920;-91
2022/04/16 07:52:45;;;;;;;;;;;10.20;87.40;;;;;;2086378;28;19925;-90
2022/04/16 07:54:04;;;;;;;;;;;10.20;87.30;;;;;;2088809;28;19916;-91
2022/04/16 07:55:24;;;;;;;;;;;10.30;87.30;;;;;;2099985;28;19999;-91
2022/04/16 07:56:43;;;;;;;;;;;10.30;87.20;;;;;;2092136;28;20353;-91
2022/04/16 07:58:03;;;;;;;;;;;10.40;87.10;;;;;;2093246;28;19916;-90
2022/04/16 07:59:22;;;;;;;;;;;10.40;87.10;;;;;;2085637;28;19921;-91
2022/04/16 08:00:41;;;;;;;;;;;10.50;87.10;;;;;;2080500;28;19925;-90
2022/04/16 08:02:00;;;;;;;;;;;10.50;87.00;;;;;;2089834;28;19924;-91